sensor_id;sensor_type;location;lat;lon;timestamp;P1;durP1;ratioP1;P2;durP2;ratioP2
44774;SDS011;31340;51.402;0.016;2022-09-14T00:01:31;15.15;;;8.23;;
44774;SDS011;31340;51.402;0.016;2022-09-14T00:04:04;12.80;;;7.70;;
44774;SDS011;31340;51.402;0.016;2022-09-14T00:06:34;18.13;;;8.70;;
44774;SDS011;31340;51.402;0.016;2022-09-14T00:09:02;12.52;;;7.65;;
44774;SDS011;31340;51.402;0.016;2022-09-14T00:11:33;11.45;;;7.35;;
44774;SDS011;31340;51.402;0.016;2022-09-14T00:14:02;15.07;;;8.32;;
44774;SDS011;31340;51.402;0.016;2022-09-14T00:16:32;15.43;;;8.68;;
44774;SDS011;31340;51.402;0.016;2022-09-14T00:19:02;21.40;;;8.35;;
44774;SDS011;31340;51.402;0.016;2022-09-14T00:21:33;14.95;;;7.97;;
44774;SDS011;31340;51.402;0.016;2022-09-14T00:24:05;15.68;;;8.13;;
44774;SDS011;31340;51.402;0.016;2022-09-14T00:26:35;12.05;;;7.78;;
44774;SDS011;31340;51.402;0.016;2022-09-14T00:29:03;17.27;;;8.63;;
44774;SDS011;31340;51.402;0.016;2022-09-14T00:31:36;17.42;;;9.10;;
44774;SDS011;31340;51.402;0.016;2022-09-14T00:34:05;15.05;;;6.90;;
44774;SDS011;31340;51.402;0.016;2022-09-14T00:36:43;15.23;;;8.13;;
44774;SDS011;31340;51.402;0.016;2022-09-14T00:39:13;13.13;;;7.40;;
44774;SDS011;31340;51.402;0.016;2022-09-14T00:41:42;12.45;;;6.22;;
44774;SDS011;31340;51.402;0.016;2022-09-14T00:46:40;12.32;;;4.88;;
44774;SDS011;31340;51.402;0.016;2022-09-14T00:49:14;10.45;;;5.47;;
44774;SDS011;31340;51.402;0.016;2022-09-14T00:52:00;6.60;;;3.95;;
44774;SDS011;31340;51.402;0.016;2022-09-14T00:54:38;10.40;;;4.57;;
44774;SDS011;31340;51.402;0.016;2022-09-14T00:57:09;11.25;;;4.40;;
44774;SDS011;31340;51.402;0.016;2022-09-14T00:59:37;10.73;;;4.18;;
44774;SDS011;31340;51.402;0.016;2022-09-14T01:02:08;8.93;;;3.93;;
44774;SDS011;31340;51.402;0.016;2022-09-14T01:04:38;10.25;;;4.28;;
44774;SDS011;31340;51.402;0.016;2022-09-14T01:15:16;12.57;;;4.00;;
44774;SDS011;31340;51.402;0.016;2022-09-14T01:21:04;10.65;;;5.07;;
44774;SDS011;31340;51.402;0.016;2022-09-14T01:23:44;8.23;;;3.97;;
44774;SDS011;31340;51.402;0.016;2022-09-14T01:26:32;13.95;;;4.68;;
44774;SDS011;31340;51.402;0.016;2022-09-14T01:31:55;8.82;;;4.30;;
44774;SDS011;31340;51.402;0.016;2022-09-14T01:34:40;12.73;;;5.47;;
44774;SDS011;31340;51.402;0.016;2022-09-14T01:37:13;11.82;;;5.35;;
44774;SDS011;31340;51.402;0.016;2022-09-14T01:42:41;11.20;;;4.85;;
44774;SDS011;31340;51.402;0.016;2022-09-14T01:45:15;13.80;;;5.38;;
44774;SDS011;31340;51.402;0.016;2022-09-14T01:47:46;8.20;;;5.07;;
44774;SDS011;31340;51.402;0.016;2022-09-14T01:52:58;8.90;;;4.82;;
44774;SDS011;31340;51.402;0.016;2022-09-14T01:56:18;9.15;;;4.63;;
44774;SDS011;31340;51.402;0.016;2022-09-14T02:01:19;14.02;;;5.28;;
44774;SDS011;31340;51.402;0.016;2022-09-14T02:03:51;8.20;;;4.60;;
44774;SDS011;31340;51.402;0.016;2022-09-14T02:09:03;19.90;;;5.18;;
44774;SDS011;31340;51.402;0.016;2022-09-14T02:11:32;4.95;;;3.20;;
44774;SDS011;31340;51.402;0.016;2022-09-14T02:14:00;7.70;;;3.15;;
44774;SDS011;31340;51.402;0.016;2022-09-14T02:16:27;4.25;;;2.55;;
44774;SDS011;31340;51.402;0.016;2022-09-14T02:18:55;7.90;;;3.10;;
44774;SDS011;31340;51.402;0.016;2022-09-14T02:21:26;8.00;;;2.90;;
44774;SDS011;31340;51.402;0.016;2022-09-14T02:23:56;5.03;;;2.15;;
44774;SDS011;31340;51.402;0.016;2022-09-14T02:26:25;6.60;;;2.42;;
44774;SDS011;31340;51.402;0.016;2022-09-14T02:28:54;4.72;;;2.42;;
44774;SDS011;31340;51.402;0.016;2022-09-14T02:31:34;5.88;;;2.08;;
44774;SDS011;31340;51.402;0.016;2022-09-14T02:34:45;7.07;;;2.20;;
44774;SDS011;31340;51.402;0.016;2022-09-14T02:42:54;4.65;;;2.53;;
44774;SDS011;31340;51.402;0.016;2022-09-14T02:53:44;10.82;;;3.58;;
44774;SDS011;31340;51.402;0.016;2022-09-14T02:56:14;9.35;;;4.80;;
44774;SDS011;31340;51.402;0.016;2022-09-14T02:58:44;16.13;;;7.15;;
44774;SDS011;31340;51.402;0.016;2022-09-14T03:01:13;12.45;;;7.05;;
44774;SDS011;31340;51.402;0.016;2022-09-14T03:03:43;14.63;;;7.10;;
44774;SDS011;31340;51.402;0.016;2022-09-14T03:06:11;16.92;;;8.80;;
44774;SDS011;31340;51.402;0.016;2022-09-14T03:08:39;15.68;;;10.60;;
44774;SDS011;31340;51.402;0.016;2022-09-14T03:11:07;14.02;;;8.40;;
44774;SDS011;31340;51.402;0.016;2022-09-14T03:13:35;19.85;;;9.77;;
44774;SDS011;31340;51.402;0.016;2022-09-14T03:16:04;12.60;;;8.65;;
44774;SDS011;31340;51.402;0.016;2022-09-14T03:18:33;18.90;;;8.93;;
44774;SDS011;31340;51.402;0.016;2022-09-14T03:21:02;14.65;;;9.35;;
44774;SDS011;31340;51.402;0.016;2022-09-14T03:23:41;12.95;;;8.63;;
44774;SDS011;31340;51.402;0.016;2022-09-14T03:26:12;14.80;;;9.80;;
44774;SDS011;31340;51.402;0.016;2022-09-14T03:28:41;15.95;;;10.30;;
44774;SDS011;31340;51.402;0.016;2022-09-14T03:31:09;17.98;;;9.70;;
44774;SDS011;31340;51.402;0.016;2022-09-14T03:33:38;22.48;;;11.68;;
44774;SDS011;31340;51.402;0.016;2022-09-14T03:36:14;15.23;;;10.27;;
44774;SDS011;31340;51.402;0.016;2022-09-14T03:38:47;20.52;;;11.85;;
44774;SDS011;31340;51.402;0.016;2022-09-14T03:41:17;18.08;;;10.88;;
44774;SDS011;31340;51.402;0.016;2022-09-14T03:43:46;21.23;;;11.15;;
44774;SDS011;31340;51.402;0.016;2022-09-14T03:46:15;21.75;;;10.55;;
44774;SDS011;31340;51.402;0.016;2022-09-14T03:48:44;20.88;;;11.55;;
44774;SDS011;31340;51.402;0.016;2022-09-14T03:51:12;14.00;;;10.48;;
44774;SDS011;31340;51.402;0.016;2022-09-14T03:53:40;29.08;;;12.75;;
44774;SDS011;31340;51.402;0.016;2022-09-14T03:56:09;23.85;;;12.68;;
44774;SDS011;31340;51.402;0.016;2022-09-14T03:58:41;26.17;;;14.10;;
44774;SDS011;31340;51.402;0.016;2022-09-14T04:01:11;17.65;;;11.32;;
44774;SDS011;31340;51.402;0.016;2022-09-14T04:03:40;16.73;;;10.50;;
44774;SDS011;31340;51.402;0.016;2022-09-14T04:06:08;21.90;;;12.50;;
44774;SDS011;31340;51.402;0.016;2022-09-14T04:08:37;20.55;;;11.55;;
44774;SDS011;31340;51.402;0.016;2022-09-14T04:11:07;18.95;;;12.18;;
44774;SDS011;31340;51.402;0.016;2022-09-14T04:13:36;23.70;;;12.87;;
44774;SDS011;31340;51.402;0.016;2022-09-14T04:16:04;22.40;;;12.98;;
44774;SDS011;31340;51.402;0.016;2022-09-14T04:18:32;25.75;;;13.00;;
44774;SDS011;31340;51.402;0.016;2022-09-14T04:21:01;21.20;;;12.25;;
44774;SDS011;31340;51.402;0.016;2022-09-14T04:23:34;21.85;;;12.80;;
44774;SDS011;31340;51.402;0.016;2022-09-14T04:26:23;24.98;;;12.68;;
44774;SDS011;31340;51.402;0.016;2022-09-14T04:28:55;23.17;;;13.35;;
44774;SDS011;31340;51.402;0.016;2022-09-14T04:31:23;27.67;;;14.05;;
44774;SDS011;31340;51.402;0.016;2022-09-14T04:33:52;26.33;;;15.05;;
44774;SDS011;31340;51.402;0.016;2022-09-14T04:36:23;26.90;;;15.57;;
44774;SDS011;31340;51.402;0.016;2022-09-14T04:38:54;28.48;;;14.55;;
44774;SDS011;31340;51.402;0.016;2022-09-14T04:41:24;33.22;;;16.67;;
44774;SDS011;31340;51.402;0.016;2022-09-14T04:43:53;27.55;;;16.98;;
44774;SDS011;31340;51.402;0.016;2022-09-14T04:46:25;29.17;;;17.13;;
44774;SDS011;31340;51.402;0.016;2022-09-14T04:48:58;29.58;;;16.30;;
44774;SDS011;31340;51.402;0.016;2022-09-14T04:51:26;33.85;;;16.73;;
44774;SDS011;31340;51.402;0.016;2022-09-14T04:53:56;28.93;;;15.90;;
44774;SDS011;31340;51.402;0.016;2022-09-14T04:56:25;32.65;;;16.75;;
44774;SDS011;31340;51.402;0.016;2022-09-14T04:58:54;26.45;;;15.43;;
44774;SDS011;31340;51.402;0.016;2022-09-14T05:01:28;35.08;;;15.80;;
44774;SDS011;31340;51.402;0.016;2022-09-14T05:03:57;27.02;;;13.98;;
44774;SDS011;31340;51.402;0.016;2022-09-14T05:06:27;30.88;;;16.27;;
44774;SDS011;31340;51.402;0.016;2022-09-14T05:08:55;31.40;;;15.05;;
44774;SDS011;31340;51.402;0.016;2022-09-14T05:11:27;29.13;;;15.30;;
44774;SDS011;31340;51.402;0.016;2022-09-14T05:13:56;33.55;;;16.30;;
44774;SDS011;31340;51.402;0.016;2022-09-14T05:16:36;37.78;;;17.77;;
44774;SDS011;31340;51.402;0.016;2022-09-14T05:19:05;27.75;;;15.82;;
44774;SDS011;31340;51.402;0.016;2022-09-14T05:21:35;41.33;;;18.50;;
44774;SDS011;31340;51.402;0.016;2022-09-14T05:24:04;31.08;;;16.70;;
44774;SDS011;31340;51.402;0.016;2022-09-14T05:26:34;29.42;;;16.27;;
44774;SDS011;31340;51.402;0.016;2022-09-14T05:29:01;28.75;;;16.05;;
44774;SDS011;31340;51.402;0.016;2022-09-14T05:31:29;30.85;;;15.73;;
44774;SDS011;31340;51.402;0.016;2022-09-14T05:33:58;27.63;;;14.98;;
44774;SDS011;31340;51.402;0.016;2022-09-14T05:36:25;26.67;;;14.57;;
44774;SDS011;31340;51.402;0.016;2022-09-14T05:38:53;29.13;;;14.13;;
44774;SDS011;31340;51.402;0.016;2022-09-14T05:41:20;28.92;;;14.18;;
44774;SDS011;31340;51.402;0.016;2022-09-14T05:43:48;24.73;;;14.00;;
44774;SDS011;31340;51.402;0.016;2022-09-14T05:46:17;30.48;;;15.18;;
44774;SDS011;31340;51.402;0.016;2022-09-14T05:48:48;25.02;;;13.38;;
44774;SDS011;31340;51.402;0.016;2022-09-14T05:51:18;21.08;;;13.27;;
44774;SDS011;31340;51.402;0.016;2022-09-14T05:53:55;19.65;;;12.98;;
44774;SDS011;31340;51.402;0.016;2022-09-14T05:56:24;24.70;;;13.27;;
44774;SDS011;31340;51.402;0.016;2022-09-14T05:58:53;21.92;;;12.40;;
44774;SDS011;31340;51.402;0.016;2022-09-14T06:01:22;19.33;;;9.90;;
44774;SDS011;31340;51.402;0.016;2022-09-14T06:03:52;18.60;;;11.87;;
44774;SDS011;31340;51.402;0.016;2022-09-14T06:06:21;19.08;;;11.48;;
44774;SDS011;31340;51.402;0.016;2022-09-14T06:08:49;21.00;;;10.43;;
44774;SDS011;31340;51.402;0.016;2022-09-14T06:11:19;21.92;;;11.63;;
44774;SDS011;31340;51.402;0.016;2022-09-14T06:13:58;16.95;;;9.73;;
44774;SDS011;31340;51.402;0.016;2022-09-14T06:16:26;18.95;;;9.75;;
44774;SDS011;31340;51.402;0.016;2022-09-14T06:18:55;16.30;;;8.60;;
44774;SDS011;31340;51.402;0.016;2022-09-14T06:21:26;16.63;;;8.18;;
44774;SDS011;31340;51.402;0.016;2022-09-14T06:23:56;16.50;;;9.52;;
44774;SDS011;31340;51.402;0.016;2022-09-14T06:26:24;17.30;;;8.65;;
44774;SDS011;31340;51.402;0.016;2022-09-14T06:28:52;16.50;;;9.25;;
44774;SDS011;31340;51.402;0.016;2022-09-14T06:31:20;20.73;;;9.00;;
44774;SDS011;31340;51.402;0.016;2022-09-14T06:33:51;15.48;;;8.13;;
44774;SDS011;31340;51.402;0.016;2022-09-14T06:36:23;17.23;;;8.60;;
44774;SDS011;31340;51.402;0.016;2022-09-14T06:38:52;15.75;;;6.95;;
44774;SDS011;31340;51.402;0.016;2022-09-14T06:41:22;13.35;;;7.20;;
44774;SDS011;31340;51.402;0.016;2022-09-14T06:43:55;14.10;;;6.82;;
44774;SDS011;31340;51.402;0.016;2022-09-14T06:46:28;14.35;;;6.55;;
44774;SDS011;31340;51.402;0.016;2022-09-14T06:49:10;15.27;;;5.90;;
44774;SDS011;31340;51.402;0.016;2022-09-14T06:51:40;14.68;;;6.53;;
44774;SDS011;31340;51.402;0.016;2022-09-14T06:54:10;12.85;;;5.97;;
44774;SDS011;31340;51.402;0.016;2022-09-14T06:56:39;12.40;;;6.65;;
44774;SDS011;31340;51.402;0.016;2022-09-14T06:59:08;14.20;;;5.90;;
44774;SDS011;31340;51.402;0.016;2022-09-14T07:01:38;11.93;;;7.32;;
44774;SDS011;31340;51.402;0.016;2022-09-14T07:04:06;12.57;;;6.05;;
44774;SDS011;31340;51.402;0.016;2022-09-14T07:06:38;14.32;;;7.07;;
44774;SDS011;31340;51.402;0.016;2022-09-14T07:09:08;14.23;;;7.38;;
44774;SDS011;31340;51.402;0.016;2022-09-14T07:11:36;12.70;;;6.63;;
44774;SDS011;31340;51.402;0.016;2022-09-14T07:14:04;13.70;;;6.18;;
44774;SDS011;31340;51.402;0.016;2022-09-14T07:16:33;17.35;;;7.00;;
44774;SDS011;31340;51.402;0.016;2022-09-14T07:19:03;11.00;;;6.43;;
44774;SDS011;31340;51.402;0.016;2022-09-14T07:21:33;12.85;;;6.10;;
44774;SDS011;31340;51.402;0.016;2022-09-14T07:24:01;16.15;;;6.80;;
44774;SDS011;31340;51.402;0.016;2022-09-14T07:26:30;21.00;;;7.82;;
44774;SDS011;31340;51.402;0.016;2022-09-14T07:29:07;13.50;;;6.75;;
44774;SDS011;31340;51.402;0.016;2022-09-14T07:31:47;16.25;;;6.40;;
44774;SDS011;31340;51.402;0.016;2022-09-14T07:34:16;16.85;;;6.55;;
44774;SDS011;31340;51.402;0.016;2022-09-14T07:36:44;16.60;;;6.85;;
44774;SDS011;31340;51.402;0.016;2022-09-14T07:39:13;18.27;;;7.00;;
44774;SDS011;31340;51.402;0.016;2022-09-14T07:41:42;10.85;;;5.97;;
44774;SDS011;31340;51.402;0.016;2022-09-14T07:44:12;14.52;;;6.50;;
44774;SDS011;31340;51.402;0.016;2022-09-14T07:49:09;13.93;;;6.20;;
44774;SDS011;31340;51.402;0.016;2022-09-14T07:51:37;13.50;;;5.30;;
44774;SDS011;31340;51.402;0.016;2022-09-14T07:54:06;10.43;;;5.38;;
44774;SDS011;31340;51.402;0.016;2022-09-14T07:59:04;14.40;;;6.10;;
44774;SDS011;31340;51.402;0.016;2022-09-14T08:01:52;13.90;;;6.35;;
44774;SDS011;31340;51.402;0.016;2022-09-14T08:04:20;11.73;;;5.05;;
44774;SDS011;31340;51.402;0.016;2022-09-14T08:06:47;8.93;;;5.20;;
44774;SDS011;31340;51.402;0.016;2022-09-14T08:09:14;12.73;;;6.10;;
44774;SDS011;31340;51.402;0.016;2022-09-14T08:11:42;12.27;;;5.07;;
44774;SDS011;31340;51.402;0.016;2022-09-14T08:14:10;17.23;;;6.82;;
44774;SDS011;31340;51.402;0.016;2022-09-14T08:16:39;11.55;;;6.80;;
44774;SDS011;31340;51.402;0.016;2022-09-14T08:19:12;17.05;;;7.45;;
44774;SDS011;31340;51.402;0.016;2022-09-14T08:21:42;12.55;;;6.50;;
44774;SDS011;31340;51.402;0.016;2022-09-14T08:24:14;13.90;;;7.95;;
44774;SDS011;31340;51.402;0.016;2022-09-14T08:26:44;13.90;;;7.25;;
44774;SDS011;31340;51.402;0.016;2022-09-14T08:29:13;13.40;;;6.68;;
44774;SDS011;31340;51.402;0.016;2022-09-14T08:31:42;12.75;;;7.82;;
44774;SDS011;31340;51.402;0.016;2022-09-14T08:34:12;20.92;;;8.35;;
44774;SDS011;31340;51.402;0.016;2022-09-14T08:36:41;14.20;;;8.68;;
44774;SDS011;31340;51.402;0.016;2022-09-14T08:39:10;14.60;;;7.60;;
44774;SDS011;31340;51.402;0.016;2022-09-14T08:52:22;15.07;;;7.18;;
44774;SDS011;31340;51.402;0.016;2022-09-14T08:58:02;11.18;;;6.43;;
44774;SDS011;31340;51.402;0.016;2022-09-14T09:00:48;15.05;;;7.22;;
44774;SDS011;31340;51.402;0.016;2022-09-14T09:06:18;15.77;;;6.68;;
44774;SDS011;31340;51.402;0.016;2022-09-14T09:11:42;19.67;;;7.78;;
44774;SDS011;31340;51.402;0.016;2022-09-14T09:14:19;13.57;;;6.43;;
44774;SDS011;31340;51.402;0.016;2022-09-14T09:16:52;17.38;;;6.20;;
44774;SDS011;31340;51.402;0.016;2022-09-14T09:19:25;13.65;;;6.15;;
44774;SDS011;31340;51.402;0.016;2022-09-14T09:21:57;15.75;;;6.05;;
44774;SDS011;31340;51.402;0.016;2022-09-14T09:24:31;10.43;;;5.32;;
44774;SDS011;31340;51.402;0.016;2022-09-14T09:27:09;14.57;;;5.18;;
44774;SDS011;31340;51.402;0.016;2022-09-14T09:29:37;13.75;;;5.53;;
44774;SDS011;31340;51.402;0.016;2022-09-14T09:32:15;10.68;;;5.55;;
44774;SDS011;31340;51.402;0.016;2022-09-14T09:35:13;11.13;;;5.15;;
44774;SDS011;31340;51.402;0.016;2022-09-14T09:37:58;13.88;;;5.25;;
44774;SDS011;31340;51.402;0.016;2022-09-14T09:40:36;13.50;;;5.00;;
44774;SDS011;31340;51.402;0.016;2022-09-14T09:43:08;11.50;;;5.13;;
44774;SDS011;31340;51.402;0.016;2022-09-14T09:45:53;13.93;;;4.75;;
44774;SDS011;31340;51.402;0.016;2022-09-14T09:48:37;12.07;;;5.20;;
44774;SDS011;31340;51.402;0.016;2022-09-14T09:51:24;13.98;;;5.00;;
44774;SDS011;31340;51.402;0.016;2022-09-14T09:53:55;12.30;;;5.00;;
44774;SDS011;31340;51.402;0.016;2022-09-14T09:56:33;16.02;;;5.32;;
44774;SDS011;31340;51.402;0.016;2022-09-14T09:59:19;11.38;;;4.47;;
44774;SDS011;31340;51.402;0.016;2022-09-14T10:01:49;13.27;;;4.57;;
44774;SDS011;31340;51.402;0.016;2022-09-14T10:04:22;10.85;;;4.63;;
44774;SDS011;31340;51.402;0.016;2022-09-14T10:06:54;16.38;;;4.30;;
44774;SDS011;31340;51.402;0.016;2022-09-14T10:09:24;12.05;;;5.25;;
44774;SDS011;31340;51.402;0.016;2022-09-14T10:12:00;13.50;;;5.00;;
44774;SDS011;31340;51.402;0.016;2022-09-14T10:14:30;15.15;;;4.68;;
44774;SDS011;31340;51.402;0.016;2022-09-14T10:17:07;18.45;;;5.93;;
44774;SDS011;31340;51.402;0.016;2022-09-14T10:22:18;11.63;;;4.13;;
44774;SDS011;31340;51.402;0.016;2022-09-14T10:25:00;7.30;;;3.40;;
44774;SDS011;31340;51.402;0.016;2022-09-14T10:30:43;13.98;;;3.28;;
44774;SDS011;31340;51.402;0.016;2022-09-14T10:33:15;10.50;;;3.55;;
44774;SDS011;31340;51.402;0.016;2022-09-14T10:46:49;9.68;;;3.00;;
44774;SDS011;31340;51.402;0.016;2022-09-14T10:52:15;9.48;;;2.67;;
44774;SDS011;31340;51.402;0.016;2022-09-14T10:57:27;8.10;;;2.70;;
44774;SDS011;31340;51.402;0.016;2022-09-14T11:00:21;12.32;;;3.30;;
44774;SDS011;31340;51.402;0.016;2022-09-14T11:05:30;10.95;;;3.50;;
44774;SDS011;31340;51.402;0.016;2022-09-14T11:14:20;13.75;;;3.88;;
44774;SDS011;31340;51.402;0.016;2022-09-14T11:16:58;7.88;;;3.35;;
44774;SDS011;31340;51.402;0.016;2022-09-14T11:19:50;9.60;;;3.80;;
44774;SDS011;31340;51.402;0.016;2022-09-14T11:22:41;10.48;;;3.55;;
44774;SDS011;31340;51.402;0.016;2022-09-14T11:25:44;15.90;;;4.30;;
44774;SDS011;31340;51.402;0.016;2022-09-14T11:28:20;16.98;;;3.97;;
44774;SDS011;31340;51.402;0.016;2022-09-14T11:34:41;7.45;;;3.67;;
44774;SDS011;31340;51.402;0.016;2022-09-14T11:37:23;10.35;;;3.33;;
44774;SDS011;31340;51.402;0.016;2022-09-14T11:46:09;7.45;;;3.53;;
44774;SDS011;31340;51.402;0.016;2022-09-14T11:54:41;14.55;;;3.03;;
44774;SDS011;31340;51.402;0.016;2022-09-14T11:57:14;11.10;;;3.10;;
44774;SDS011;31340;51.402;0.016;2022-09-14T11:59:45;7.55;;;2.97;;
44774;SDS011;31340;51.402;0.016;2022-09-14T12:05:29;7.68;;;2.50;;
44774;SDS011;31340;51.402;0.016;2022-09-14T12:10:17;5.97;;;2.08;;
44774;SDS011;31340;51.402;0.016;2022-09-14T12:17:49;7.57;;;1.80;;
44774;SDS011;31340;51.402;0.016;2022-09-14T12:25:51;4.30;;;1.65;;
44774;SDS011;31340;51.402;0.016;2022-09-14T12:35:58;5.75;;;1.50;;
44774;SDS011;31340;51.402;0.016;2022-09-14T13:02:28;5.35;;;1.40;;
44774;SDS011;31340;51.402;0.016;2022-09-14T13:05:13;6.43;;;1.95;;
44774;SDS011;31340;51.402;0.016;2022-09-14T13:07:44;6.35;;;1.58;;
44774;SDS011;31340;51.402;0.016;2022-09-14T13:10:19;6.47;;;1.90;;
44774;SDS011;31340;51.402;0.016;2022-09-14T13:13:14;7.63;;;2.08;;
44774;SDS011;31340;51.402;0.016;2022-09-14T13:15:48;6.65;;;2.10;;
44774;SDS011;31340;51.402;0.016;2022-09-14T13:18:33;7.53;;;2.13;;
44774;SDS011;31340;51.402;0.016;2022-09-14T13:21:11;5.80;;;2.13;;
44774;SDS011;31340;51.402;0.016;2022-09-14T13:23:43;6.25;;;2.10;;
44774;SDS011;31340;51.402;0.016;2022-09-14T13:26:13;4.30;;;1.77;;
44774;SDS011;31340;51.402;0.016;2022-09-14T13:28:45;5.97;;;2.05;;
44774;SDS011;31340;51.402;0.016;2022-09-14T13:31:21;4.80;;;2.00;;
44774;SDS011;31340;51.402;0.016;2022-09-14T13:34:01;9.32;;;2.35;;
44774;SDS011;31340;51.402;0.016;2022-09-14T13:36:34;6.40;;;1.88;;
44774;SDS011;31340;51.402;0.016;2022-09-14T13:39:09;6.85;;;1.67;;
44774;SDS011;31340;51.402;0.016;2022-09-14T13:41:50;6.55;;;1.73;;
44774;SDS011;31340;51.402;0.016;2022-09-14T13:44:20;5.80;;;1.73;;
44774;SDS011;31340;51.402;0.016;2022-09-14T13:46:51;2.95;;;1.45;;
44774;SDS011;31340;51.402;0.016;2022-09-14T13:49:19;5.53;;;1.70;;
44774;SDS011;31340;51.402;0.016;2022-09-14T13:51:47;2.70;;;1.42;;
44774;SDS011;31340;51.402;0.016;2022-09-14T13:54:36;3.47;;;1.40;;
44774;SDS011;31340;51.402;0.016;2022-09-14T13:57:12;7.90;;;2.30;;
44774;SDS011;31340;51.402;0.016;2022-09-14T14:02:41;4.80;;;1.50;;
44774;SDS011;31340;51.402;0.016;2022-09-14T14:05:19;5.68;;;1.48;;
44774;SDS011;31340;51.402;0.016;2022-09-14T14:07:53;4.47;;;1.50;;
44774;SDS011;31340;51.402;0.016;2022-09-14T14:10:33;2.85;;;1.38;;
44774;SDS011;31340;51.402;0.016;2022-09-14T14:13:05;3.00;;;1.40;;
44774;SDS011;31340;51.402;0.016;2022-09-14T14:15:40;5.10;;;1.90;;
44774;SDS011;31340;51.402;0.016;2022-09-14T14:21:02;2.35;;;1.10;;
44774;SDS011;31340;51.402;0.016;2022-09-14T14:23:36;4.20;;;1.30;;
44774;SDS011;31340;51.402;0.016;2022-09-14T14:26:25;5.57;;;1.50;;
44774;SDS011;31340;51.402;0.016;2022-09-14T14:28:53;2.55;;;1.45;;
44774;SDS011;31340;51.402;0.016;2022-09-14T14:31:21;4.20;;;1.50;;
44774;SDS011;31340;51.402;0.016;2022-09-14T14:33:52;4.53;;;1.40;;
44774;SDS011;31340;51.402;0.016;2022-09-14T14:36:21;4.70;;;1.70;;
44774;SDS011;31340;51.402;0.016;2022-09-14T14:38:49;5.78;;;1.30;;
44774;SDS011;31340;51.402;0.016;2022-09-14T14:41:19;6.13;;;1.67;;
44774;SDS011;31340;51.402;0.016;2022-09-14T14:43:47;4.53;;;1.45;;
44774;SDS011;31340;51.402;0.016;2022-09-14T14:46:16;6.30;;;1.45;;
44774;SDS011;31340;51.402;0.016;2022-09-14T14:48:44;14.00;;;9.18;;
44774;SDS011;31340;51.402;0.016;2022-09-14T14:51:12;58.58;;;30.35;;
44774;SDS011;31340;51.402;0.016;2022-09-14T14:53:41;37.03;;;19.85;;
44774;SDS011;31340;51.402;0.016;2022-09-14T14:56:09;23.83;;;17.25;;
44774;SDS011;31340;51.402;0.016;2022-09-14T14:58:44;9.47;;;5.00;;
44774;SDS011;31340;51.402;0.016;2022-09-14T15:01:13;5.10;;;2.20;;
44774;SDS011;31340;51.402;0.016;2022-09-14T15:03:42;7.43;;;2.97;;
44774;SDS011;31340;51.402;0.016;2022-09-14T15:06:16;8.05;;;3.50;;
44774;SDS011;31340;51.402;0.016;2022-09-14T15:08:47;4.57;;;1.75;;
44774;SDS011;31340;51.402;0.016;2022-09-14T15:11:18;4.90;;;2.05;;
44774;SDS011;31340;51.402;0.016;2022-09-14T15:13:45;5.35;;;1.73;;
44774;SDS011;31340;51.402;0.016;2022-09-14T15:16:14;3.65;;;1.48;;
44774;SDS011;31340;51.402;0.016;2022-09-14T15:18:43;7.47;;;2.00;;
44774;SDS011;31340;51.402;0.016;2022-09-14T15:21:11;3.83;;;1.60;;
44774;SDS011;31340;51.402;0.016;2022-09-14T15:23:38;5.10;;;1.70;;
44774;SDS011;31340;51.402;0.016;2022-09-14T15:26:06;3.90;;;1.30;;
44774;SDS011;31340;51.402;0.016;2022-09-14T15:28:34;6.65;;;1.60;;
44774;SDS011;31340;51.402;0.016;2022-09-14T15:31:04;4.18;;;1.55;;
44774;SDS011;31340;51.402;0.016;2022-09-14T15:33:34;3.97;;;1.40;;
44774;SDS011;31340;51.402;0.016;2022-09-14T15:36:01;5.88;;;1.52;;
44774;SDS011;31340;51.402;0.016;2022-09-14T15:38:29;5.05;;;1.35;;
44774;SDS011;31340;51.402;0.016;2022-09-14T15:40:57;5.10;;;1.65;;
44774;SDS011;31340;51.402;0.016;2022-09-14T15:43:24;15.57;;;1.77;;
44774;SDS011;31340;51.402;0.016;2022-09-14T15:45:52;4.95;;;1.60;;
44774;SDS011;31340;51.402;0.016;2022-09-14T15:48:20;4.20;;;1.45;;
44774;SDS011;31340;51.402;0.016;2022-09-14T15:50:47;2.95;;;1.30;;
44774;SDS011;31340;51.402;0.016;2022-09-14T15:53:15;4.28;;;1.80;;
44774;SDS011;31340;51.402;0.016;2022-09-14T15:55:44;6.07;;;1.60;;
44774;SDS011;31340;51.402;0.016;2022-09-14T15:58:11;7.03;;;1.52;;
44774;SDS011;31340;51.402;0.016;2022-09-14T16:00:42;4.25;;;1.65;;
44774;SDS011;31340;51.402;0.016;2022-09-14T16:03:11;6.28;;;1.40;;
44774;SDS011;31340;51.402;0.016;2022-09-14T16:05:38;4.10;;;1.35;;
44774;SDS011;31340;51.402;0.016;2022-09-14T16:08:06;7.78;;;1.77;;
44774;SDS011;31340;51.402;0.016;2022-09-14T16:10:33;6.05;;;1.40;;
44774;SDS011;31340;51.402;0.016;2022-09-14T16:13:01;3.67;;;1.73;;
44774;SDS011;31340;51.402;0.016;2022-09-14T16:15:28;4.15;;;1.48;;
44774;SDS011;31340;51.402;0.016;2022-09-14T16:17:56;3.30;;;1.65;;
44774;SDS011;31340;51.402;0.016;2022-09-14T16:20:23;5.82;;;1.50;;
44774;SDS011;31340;51.402;0.016;2022-09-14T16:22:51;6.55;;;1.73;;
44774;SDS011;31340;51.402;0.016;2022-09-14T16:25:19;11.48;;;1.80;;
44774;SDS011;31340;51.402;0.016;2022-09-14T16:27:46;3.28;;;1.35;;
44774;SDS011;31340;51.402;0.016;2022-09-14T16:30:14;4.53;;;1.40;;
44774;SDS011;31340;51.402;0.016;2022-09-14T16:32:42;5.85;;;1.75;;
44774;SDS011;31340;51.402;0.016;2022-09-14T16:35:10;2.90;;;1.50;;
44774;SDS011;31340;51.402;0.016;2022-09-14T16:37:37;5.90;;;1.88;;
44774;SDS011;31340;51.402;0.016;2022-09-14T16:40:05;4.43;;;1.85;;
44774;SDS011;31340;51.402;0.016;2022-09-14T16:42:33;4.90;;;1.80;;
44774;SDS011;31340;51.402;0.016;2022-09-14T16:45:00;11.45;;;1.77;;
44774;SDS011;31340;51.402;0.016;2022-09-14T16:47:29;4.72;;;2.17;;
44774;SDS011;31340;51.402;0.016;2022-09-14T16:49:58;6.15;;;1.50;;
44774;SDS011;31340;51.402;0.016;2022-09-14T16:52:25;3.97;;;1.45;;
44774;SDS011;31340;51.402;0.016;2022-09-14T16:57:23;8.35;;;1.40;;
44774;SDS011;31340;51.402;0.016;2022-09-14T16:59:52;3.63;;;1.40;;
44774;SDS011;31340;51.402;0.016;2022-09-14T17:02:20;5.47;;;1.75;;
44774;SDS011;31340;51.402;0.016;2022-09-14T17:04:48;5.85;;;1.80;;
44774;SDS011;31340;51.402;0.016;2022-09-14T17:07:16;5.57;;;1.63;;
44774;SDS011;31340;51.402;0.016;2022-09-14T17:09:43;7.38;;;1.85;;
44774;SDS011;31340;51.402;0.016;2022-09-14T17:12:11;2.97;;;1.02;;
44774;SDS011;31340;51.402;0.016;2022-09-14T17:14:38;5.28;;;1.60;;
44774;SDS011;31340;51.402;0.016;2022-09-14T17:17:06;5.25;;;1.35;;
44774;SDS011;31340;51.402;0.016;2022-09-14T17:19:34;2.35;;;1.42;;
44774;SDS011;31340;51.402;0.016;2022-09-14T17:22:03;3.42;;;1.60;;
44774;SDS011;31340;51.402;0.016;2022-09-14T17:24:30;5.85;;;1.50;;
44774;SDS011;31340;51.402;0.016;2022-09-14T17:26:58;3.40;;;1.85;;
44774;SDS011;31340;51.402;0.016;2022-09-14T17:29:25;7.68;;;1.88;;
44774;SDS011;31340;51.402;0.016;2022-09-14T17:31:54;6.35;;;1.98;;
44774;SDS011;31340;51.402;0.016;2022-09-14T17:34:21;3.55;;;1.33;;
44774;SDS011;31340;51.402;0.016;2022-09-14T17:36:49;10.48;;;1.55;;
44774;SDS011;31340;51.402;0.016;2022-09-14T17:39:17;5.57;;;1.63;;
44774;SDS011;31340;51.402;0.016;2022-09-14T17:41:44;4.63;;;1.40;;
44774;SDS011;31340;51.402;0.016;2022-09-14T17:44:12;4.93;;;1.60;;
44774;SDS011;31340;51.402;0.016;2022-09-14T17:46:40;5.55;;;1.48;;
44774;SDS011;31340;51.402;0.016;2022-09-14T17:49:19;4.82;;;1.88;;
44774;SDS011;31340;51.402;0.016;2022-09-14T17:51:47;4.85;;;1.92;;
44774;SDS011;31340;51.402;0.016;2022-09-14T17:54:16;2.92;;;1.45;;